createdAt,value
2022-07-27T00:01:14.172Z,14.80
2022-07-27T00:03:44.768Z,14.40
2022-07-27T00:06:12.954Z,14.40
2022-07-27T00:08:41.508Z,14.30
2022-07-27T00:11:10.419Z,14.30
2022-07-27T00:13:38.402Z,14.30
2022-07-27T00:16:06.870Z,14.30
2022-07-27T00:18:34.897Z,14.20
2022-07-27T00:21:04.259Z,14.20
2022-07-27T00:23:32.281Z,14.20
2022-07-27T00:26:00.215Z,14.20
2022-07-27T00:28:28.162Z,14.20
2022-07-27T00:30:56.821Z,14.10
2022-07-27T00:33:24.745Z,14.10
2022-07-27T00:35:52.620Z,14.10
2022-07-27T00:38:21.923Z,14.10
2022-07-27T00:40:49.825Z,14.10
2022-07-27T00:43:17.729Z,14.10
2022-07-27T00:45:45.614Z,14.10
2022-07-27T00:48:13.733Z,14.00
2022-07-27T00:50:43.642Z,14.00
2022-07-27T00:53:14.256Z,14.00
2022-07-27T00:55:43.896Z,14.00
2022-07-27T00:58:12.371Z,13.90
2022-07-27T01:00:40.808Z,14.00
2022-07-27T01:03:09.824Z,14.50
2022-07-27T01:05:43.237Z,14.00
2022-07-27T01:08:14.631Z,14.00
2022-07-27T01:10:45.361Z,14.00
2022-07-27T01:13:13.735Z,14.00
2022-07-27T01:15:43.040Z,14.00
2022-07-27T01:18:13.278Z,14.00
2022-07-27T01:20:41.789Z,13.90
2022-07-27T01:23:11.292Z,13.90
2022-07-27T01:25:42.367Z,13.90
2022-07-27T01:28:10.588Z,13.90
2022-07-27T01:30:38.545Z,13.90
2022-07-27T01:33:08.481Z,13.90
2022-07-27T01:35:37.202Z,13.80
2022-07-27T01:38:05.629Z,13.90
2022-07-27T01:40:36.765Z,13.90
2022-07-27T01:43:05.652Z,13.80
2022-07-27T01:45:33.654Z,14.10
2022-07-27T01:48:01.589Z,13.80
2022-07-27T01:50:30.116Z,13.80
2022-07-27T01:52:58.145Z,13.70
2022-07-27T01:55:26.074Z,13.70
2022-07-27T01:57:55.348Z,13.70
2022-07-27T02:00:23.300Z,13.70
2022-07-27T02:02:51.227Z,13.60
2022-07-27T02:05:19.351Z,13.60
2022-07-27T02:07:47.328Z,13.60
2022-07-27T02:10:15.359Z,13.50
2022-07-27T02:12:42.798Z,13.50
2022-07-27T02:15:15.308Z,13.50
2022-07-27T02:17:45.350Z,13.50
2022-07-27T02:20:15.217Z,13.50
2022-07-27T02:22:43.838Z,13.40
2022-07-27T02:25:13.537Z,13.40
2022-07-27T02:27:42.368Z,13.40
2022-07-27T02:30:13.533Z,13.40
2022-07-27T02:32:44.390Z,13.40
2022-07-27T02:35:18.703Z,13.30
2022-07-27T02:37:48.270Z,13.30
2022-07-27T02:40:18.015Z,13.30
2022-07-27T02:42:46.314Z,13.20
2022-07-27T02:45:16.026Z,13.20
2022-07-27T02:47:44.305Z,13.20
2022-07-27T02:50:12.379Z,13.20
2022-07-27T02:52:40.736Z,13.20
2022-07-27T02:55:09.809Z,13.10
2022-07-27T02:57:41.200Z,13.10
2022-07-27T03:00:12.119Z,13.10
2022-07-27T03:02:41.896Z,13.10
2022-07-27T03:05:11.561Z,13.10
2022-07-27T03:07:39.869Z,13.10
2022-07-27T03:10:08.865Z,13.00
2022-07-27T03:12:36.803Z,13.10
2022-07-27T03:15:05.377Z,13.10
2022-07-27T03:17:33.878Z,13.10
2022-07-27T03:20:03.382Z,13.10
2022-07-27T03:22:32.634Z,13.20
2022-07-27T03:25:00.828Z,13.10
2022-07-27T03:27:29.363Z,13.20
2022-07-27T03:29:57.564Z,13.20
2022-07-27T03:32:25.491Z,13.20
2022-07-27T03:34:53.514Z,13.20
2022-07-27T03:37:22.820Z,13.20
2022-07-27T03:39:50.789Z,13.30
2022-07-27T03:42:18.775Z,13.30
2022-07-27T03:44:46.698Z,13.40
2022-07-27T03:47:14.618Z,13.50
2022-07-27T03:49:42.548Z,13.50
2022-07-27T03:52:15.711Z,13.60
2022-07-27T03:54:47.587Z,13.80
2022-07-27T03:57:15.846Z,13.80
2022-07-27T03:59:43.826Z,13.90
2022-07-27T04:02:11.877Z,13.90
2022-07-27T04:04:39.895Z,13.90
2022-07-27T04:07:08.115Z,14.00
2022-07-27T04:09:37.589Z,14.00
2022-07-27T04:12:09.351Z,14.00
2022-07-27T04:14:37.294Z,14.00
2022-07-27T04:17:05.341Z,14.10
2022-07-27T04:19:33.306Z,14.10
2022-07-27T04:22:01.201Z,14.20
2022-07-27T04:24:29.536Z,14.20
2022-07-27T04:26:57.515Z,14.20
2022-07-27T04:29:26.763Z,14.30
2022-07-27T04:31:54.751Z,14.30
2022-07-27T04:34:22.736Z,14.30
2022-07-27T04:36:51.362Z,14.40
2022-07-27T04:39:19.330Z,14.50
2022-07-27T04:41:47.234Z,14.50
2022-07-27T04:44:15.250Z,14.50
2022-07-27T04:46:44.550Z,14.50
2022-07-27T04:49:13.007Z,14.60
2022-07-27T04:51:43.963Z,14.60
2022-07-27T04:54:12.408Z,14.70
2022-07-27T04:56:40.353Z,14.80
2022-07-27T04:59:08.398Z,14.80
2022-07-27T05:01:37.037Z,14.80
2022-07-27T05:04:06.870Z,14.90
2022-07-27T05:06:34.944Z,14.90
2022-07-27T05:09:02.910Z,14.90
2022-07-27T05:11:30.913Z,14.90
2022-07-27T05:13:58.888Z,15.30
2022-07-27T05:16:28.966Z,15.00
2022-07-27T05:18:57.408Z,15.00
2022-07-27T05:21:27.357Z,15.10
2022-07-27T05:23:55.675Z,15.10
2022-07-27T05:26:23.998Z,15.10
2022-07-27T05:28:51.998Z,15.10
2022-07-27T05:31:20.213Z,15.20
2022-07-27T05:33:50.549Z,15.20
2022-07-27T05:36:20.368Z,15.20
2022-07-27T05:38:49.665Z,15.20
2022-07-27T05:41:22.802Z,15.30
2022-07-27T05:43:50.702Z,15.80
2022-07-27T05:46:18.883Z,15.40
2022-07-27T05:48:47.184Z,15.40
2022-07-27T05:51:15.261Z,15.40
2022-07-27T05:53:43.178Z,15.80
2022-07-27T05:56:12.424Z,15.40
2022-07-27T05:58:40.464Z,15.50
2022-07-27T06:01:08.433Z,15.40
2022-07-27T06:03:37.755Z,15.40
2022-07-27T06:06:23.499Z,15.40
2022-07-27T06:08:51.523Z,15.40
2022-07-27T06:11:20.883Z,15.50
2022-07-27T06:13:50.605Z,15.60
2022-07-27T06:16:18.989Z,15.50
2022-07-27T06:18:46.912Z,15.40
2022-07-27T06:21:14.857Z,15.40
2022-07-27T06:23:43.309Z,15.40
2022-07-27T06:26:11.271Z,16.20
2022-07-27T06:28:40.549Z,15.40
2022-07-27T06:31:08.516Z,15.50
2022-07-27T06:33:37.227Z,15.40
2022-07-27T06:36:05.754Z,15.40
2022-07-27T06:38:33.751Z,15.40
2022-07-27T06:41:02.256Z,15.40
2022-07-27T06:43:33.129Z,15.50
2022-07-27T06:46:03.297Z,15.50
2022-07-27T06:48:31.468Z,15.50
2022-07-27T06:50:59.353Z,15.60
2022-07-27T06:53:28.436Z,15.60
2022-07-27T06:56:04.913Z,15.70
2022-07-27T06:58:33.168Z,15.70
2022-07-27T07:01:03.841Z,15.70
2022-07-27T07:03:32.228Z,15.80
2022-07-27T07:06:00.268Z,15.80
2022-07-27T07:08:28.195Z,16.00
2022-07-27T07:10:56.671Z,16.00
2022-07-27T07:13:24.665Z,16.00
2022-07-27T07:15:52.771Z,16.10
2022-07-27T07:18:22.034Z,16.20
2022-07-27T07:20:49.991Z,16.30
2022-07-27T07:23:17.902Z,16.40
2022-07-27T07:25:45.792Z,16.60
2022-07-27T07:28:13.691Z,16.70
2022-07-27T07:30:41.605Z,16.80
2022-07-27T07:33:09.637Z,16.70
2022-07-27T07:35:38.879Z,16.70
2022-07-27T07:38:26.764Z,16.80
2022-07-27T07:40:54.663Z,16.80
2022-07-27T07:43:22.570Z,16.90
2022-07-27T07:45:52.210Z,16.80
2022-07-27T07:48:22.502Z,16.80
2022-07-27T07:50:53.994Z,16.90
2022-07-27T07:53:22.995Z,17.00
2022-07-27T07:55:51.251Z,17.10
2022-07-27T07:58:19.909Z,17.10
2022-07-27T08:00:47.968Z,17.00
2022-07-27T08:03:16.291Z,17.00
2022-07-27T08:05:44.648Z,17.10
2022-07-27T08:08:14.111Z,17.20
2022-07-27T08:10:42.046Z,17.20
2022-07-27T08:13:10.047Z,17.60
2022-07-27T08:15:37.969Z,17.40
2022-07-27T08:18:06.853Z,17.30
2022-07-27T08:20:35.198Z,17.40
2022-07-27T08:23:03.553Z,17.40
2022-07-27T08:25:33.573Z,17.60
2022-07-27T08:28:02.705Z,17.50
2022-07-27T08:30:32.415Z,17.60
2022-07-27T08:33:02.499Z,17.60
2022-07-27T08:35:31.968Z,17.70
2022-07-27T08:38:00.439Z,17.60
2022-07-27T08:40:39.505Z,17.60
2022-07-27T08:43:11.507Z,17.50
2022-07-27T08:45:41.545Z,17.70
2022-07-27T08:48:14.377Z,17.70
2022-07-27T08:50:43.268Z,17.80
2022-07-27T08:53:14.165Z,17.90
2022-07-27T08:55:44.971Z,18.00
2022-07-27T08:58:15.644Z,18.00
2022-07-27T09:00:45.205Z,18.10
2022-07-27T09:03:18.962Z,18.30
2022-07-27T09:05:49.820Z,18.40
2022-07-27T09:08:21.442Z,18.50
2022-07-27T09:10:49.728Z,18.60
2022-07-27T09:13:21.161Z,18.60
2022-07-27T09:16:16.170Z,18.70
2022-07-27T09:18:40.043Z,18.70
2022-07-27T09:21:13.760Z,18.80
2022-07-27T09:23:43.579Z,18.80
2022-07-27T09:26:30.364Z,18.90
2022-07-27T09:29:02.300Z,19.00
2022-07-27T09:31:31.096Z,19.10
2022-07-27T09:34:01.340Z,19.00
2022-07-27T09:36:30.590Z,19.10
2022-07-27T09:39:11.287Z,19.20
2022-07-27T09:41:43.523Z,19.20
2022-07-27T09:44:31.850Z,19.40
2022-07-27T09:47:01.166Z,19.60
2022-07-27T09:49:31.725Z,19.90
2022-07-27T09:52:02.018Z,20.10
2022-07-27T09:54:43.151Z,20.10
2022-07-27T09:57:11.394Z,20.10
2022-07-27T09:59:41.009Z,20.10
2022-07-27T10:02:09.442Z,19.80
2022-07-27T10:04:37.545Z,19.90
2022-07-27T10:07:09.485Z,20.10
2022-07-27T10:09:41.028Z,20.30
2022-07-27T10:12:09.805Z,20.30
2022-07-27T10:14:37.739Z,20.50
2022-07-27T10:17:09.682Z,20.50
2022-07-27T10:19:42.198Z,20.60
2022-07-27T10:22:10.198Z,20.80
2022-07-27T10:24:38.091Z,20.70
2022-07-27T10:27:28.036Z,20.80
2022-07-27T10:29:57.582Z,20.90
2022-07-27T10:32:31.033Z,21.20
2022-07-27T10:35:00.102Z,21.20
2022-07-27T10:37:29.539Z,21.30
2022-07-27T10:40:13.358Z,21.40
2022-07-27T10:42:41.556Z,21.60
2022-07-27T10:45:11.288Z,21.70
2022-07-27T10:47:44.660Z,21.80
2022-07-27T10:50:24.884Z,21.80
2022-07-27T10:52:55.068Z,21.90
2022-07-27T10:55:42.693Z,22.20
2022-07-27T10:58:51.352Z,21.90
2022-07-27T11:01:23.794Z,22.10
2022-07-27T11:03:53.692Z,22.30
2022-07-27T11:07:04.608Z,22.30
2022-07-27T11:12:05.220Z,22.10
2022-07-27T11:14:43.980Z,22.00
2022-07-27T11:20:02.572Z,22.20
2022-07-27T11:22:53.741Z,22.40
2022-07-27T11:25:19.728Z,22.60
2022-07-27T11:27:49.455Z,22.60
2022-07-27T11:30:25.062Z,22.10
2022-07-27T11:32:53.619Z,22.40
2022-07-27T11:35:23.567Z,22.50
2022-07-27T11:38:07.577Z,22.90
2022-07-27T11:40:56.789Z,23.30
2022-07-27T11:43:39.177Z,23.50
2022-07-27T11:46:16.263Z,23.40
2022-07-27T11:49:06.663Z,23.30
2022-07-27T11:51:38.990Z,23.20
2022-07-27T11:54:09.042Z,23.10
2022-07-27T11:56:38.916Z,22.90
2022-07-27T11:59:12.514Z,22.80
2022-07-27T12:01:42.816Z,22.90
2022-07-27T12:04:14.035Z,22.70
2022-07-27T12:06:47.261Z,22.70
2022-07-27T12:09:17.178Z,22.70
2022-07-27T12:11:51.282Z,22.70
2022-07-27T12:14:20.151Z,22.50
2022-07-27T12:16:48.075Z,22.00
2022-07-27T12:19:23.932Z,22.30
2022-07-27T12:21:56.033Z,22.70
2022-07-27T12:24:33.025Z,23.10
2022-07-27T12:27:07.040Z,23.20
2022-07-27T12:29:54.765Z,23.90
2022-07-27T12:32:22.858Z,24.30
2022-07-27T12:34:51.000Z,24.20
2022-07-27T12:37:20.339Z,24.00
2022-07-27T12:39:49.143Z,24.40
2022-07-27T12:42:17.223Z,24.00
2022-07-27T12:44:47.080Z,24.30
2022-07-27T12:47:32.409Z,24.50
2022-07-27T12:50:03.201Z,24.90
2022-07-27T12:52:33.536Z,25.00
2022-07-27T12:55:01.935Z,25.10
2022-07-27T12:57:53.890Z,25.10
2022-07-27T13:00:20.152Z,25.70
2022-07-27T13:02:48.129Z,25.90
2022-07-27T13:05:16.747Z,25.60
2022-07-27T13:07:47.777Z,25.30
2022-07-27T13:10:18.811Z,24.90
2022-07-27T13:12:48.075Z,24.80
2022-07-27T13:15:16.719Z,24.50
2022-07-27T13:17:46.175Z,24.30
2022-07-27T13:20:15.508Z,24.00
2022-07-27T13:22:45.548Z,24.00
2022-07-27T13:25:16.165Z,23.90
2022-07-27T13:27:45.982Z,23.70
2022-07-27T13:30:16.124Z,23.70
2022-07-27T13:32:45.170Z,23.70
2022-07-27T13:35:14.009Z,23.70
2022-07-27T13:37:42.427Z,23.60
2022-07-27T13:40:12.631Z,23.50
2022-07-27T13:42:40.558Z,23.40
2022-07-27T13:45:11.317Z,23.50
2022-07-27T13:47:41.024Z,23.30
2022-07-27T13:50:17.190Z,23.20
2022-07-27T13:52:46.627Z,23.20
2022-07-27T13:55:16.607Z,23.00
2022-07-27T13:57:45.170Z,23.30
2022-07-27T14:00:14.028Z,23.30
2022-07-27T14:02:42.213Z,23.90
2022-07-27T14:05:13.157Z,24.60
2022-07-27T14:07:42.684Z,25.30
2022-07-27T14:10:28.838Z,25.40
2022-07-27T14:13:08.243Z,25.10
2022-07-27T14:15:50.883Z,25.00
2022-07-27T14:18:26.941Z,24.70
2022-07-27T14:20:55.377Z,24.60
2022-07-27T14:23:23.943Z,24.50
2022-07-27T14:25:52.478Z,24.50
2022-07-27T14:28:22.061Z,25.00
2022-07-27T14:30:50.258Z,25.10
2022-07-27T14:33:18.860Z,25.30
2022-07-27T14:35:47.149Z,25.80
2022-07-27T14:38:28.322Z,26.30
2022-07-27T14:40:59.418Z,26.70
2022-07-27T14:43:29.741Z,26.60
2022-07-27T14:45:57.744Z,27.40
2022-07-27T14:48:42.685Z,27.00
2022-07-27T14:51:13.614Z,26.70
2022-07-27T14:53:41.561Z,26.70
2022-07-27T14:56:09.523Z,27.20
2022-07-27T14:58:38.787Z,27.40
2022-07-27T15:01:06.883Z,27.80
2022-07-27T15:03:34.902Z,27.80
2022-07-27T15:06:03.169Z,27.40
2022-07-27T15:08:31.158Z,27.50
2022-07-27T15:10:59.292Z,27.70
2022-07-27T15:13:27.347Z,27.90
2022-07-27T15:15:58.023Z,28.50
2022-07-27T15:18:26.172Z,28.70
2022-07-27T15:20:54.098Z,28.80
2022-07-27T15:23:22.322Z,29.00
2022-07-27T15:25:50.590Z,29.40
2022-07-27T15:28:18.488Z,29.00
2022-07-27T15:30:46.429Z,29.30
2022-07-27T15:33:15.758Z,29.10
2022-07-27T15:35:43.685Z,29.40
2022-07-27T15:38:11.645Z,29.60
2022-07-27T15:40:41.556Z,29.50
2022-07-27T15:43:12.114Z,29.30
2022-07-27T15:45:41.557Z,29.80
2022-07-27T15:48:11.283Z,29.70
2022-07-27T15:50:42.661Z,29.50
2022-07-27T15:53:11.977Z,29.70
2022-07-27T15:55:39.921Z,29.60
2022-07-27T15:58:08.613Z,29.60
2022-07-27T16:00:41.048Z,30.00
2022-07-27T16:03:09.782Z,30.00
2022-07-27T16:05:37.843Z,30.00
2022-07-27T16:08:09.744Z,30.50
2022-07-27T16:10:38.713Z,30.90
2022-07-27T16:13:07.016Z,30.70
2022-07-27T16:15:52.974Z,30.50
2022-07-27T16:18:20.976Z,30.30
2022-07-27T16:20:48.898Z,30.00
2022-07-27T16:23:21.090Z,30.10
2022-07-27T16:26:08.210Z,30.30
2022-07-27T16:28:39.612Z,29.80
2022-07-27T16:31:10.282Z,29.70
2022-07-27T16:33:38.747Z,29.50
2022-07-27T16:36:08.262Z,29.70
2022-07-27T16:38:39.299Z,29.20
2022-07-27T16:41:19.213Z,29.10
2022-07-27T16:43:47.664Z,29.20
2022-07-27T16:46:16.049Z,28.70
2022-07-27T16:48:44.167Z,28.70
2022-07-27T16:51:14.408Z,28.60
2022-07-27T16:53:47.961Z,28.30
2022-07-27T16:56:15.990Z,28.40
2022-07-27T16:58:44.449Z,28.20
2022-07-27T17:01:22.061Z,27.80
2022-07-27T17:03:55.268Z,27.90
2022-07-27T17:06:23.283Z,27.70
2022-07-27T17:08:52.754Z,27.60
2022-07-27T17:11:22.344Z,27.60
2022-07-27T17:13:58.836Z,27.30
2022-07-27T17:16:27.809Z,27.40
2022-07-27T17:18:56.076Z,27.20
2022-07-27T17:21:24.051Z,26.90
2022-07-27T17:23:53.298Z,26.90
2022-07-27T17:26:24.411Z,26.50
2022-07-27T17:28:52.892Z,26.50
2022-07-27T17:31:22.123Z,26.40
2022-07-27T17:33:50.495Z,26.20
2022-07-27T17:36:18.533Z,26.20
2022-07-27T17:38:48.227Z,26.00
2022-07-27T17:41:24.034Z,26.40
2022-07-27T17:43:53.242Z,26.70
2022-07-27T17:46:21.923Z,26.90
2022-07-27T17:48:50.055Z,27.30
2022-07-27T17:51:18.099Z,27.30
2022-07-27T17:53:46.583Z,27.40
2022-07-27T17:56:14.506Z,27.40
2022-07-27T17:58:43.833Z,27.40
2022-07-27T18:01:11.785Z,27.40
2022-07-27T18:03:40.209Z,27.50
2022-07-27T18:06:08.595Z,27.20
2022-07-27T18:08:36.981Z,26.90
2022-07-27T18:11:05.415Z,26.80
2022-07-27T18:13:38.904Z,26.80
2022-07-27T18:16:11.599Z,26.80
2022-07-27T18:18:40.601Z,26.60
2022-07-27T18:21:10.556Z,26.30
2022-07-27T18:23:38.667Z,25.70
2022-07-27T18:26:07.082Z,25.70
2022-07-27T18:28:39.449Z,25.50
2022-07-27T18:31:12.408Z,25.00
2022-07-27T18:33:45.694Z,24.90
2022-07-27T18:36:13.721Z,25.00
2022-07-27T18:38:41.695Z,24.60
2022-07-27T18:41:09.957Z,24.30
2022-07-27T18:43:38.075Z,24.40
2022-07-27T18:46:06.134Z,24.00
2022-07-27T18:48:35.491Z,23.90
2022-07-27T18:51:03.462Z,23.60
2022-07-27T18:53:31.415Z,23.50
2022-07-27T18:55:59.399Z,23.40
2022-07-27T18:58:27.672Z,23.10
2022-07-27T19:00:55.794Z,23.10
2022-07-27T19:03:24.817Z,22.80
2022-07-27T19:05:57.526Z,22.70
2022-07-27T19:08:26.015Z,22.50
2022-07-27T19:10:54.081Z,22.30
2022-07-27T19:13:22.138Z,22.20
2022-07-27T19:15:50.245Z,22.10
2022-07-27T19:18:18.196Z,21.90
2022-07-27T19:20:46.222Z,21.80
2022-07-27T19:23:15.532Z,21.50
2022-07-27T19:25:45.156Z,21.40
2022-07-27T19:28:16.806Z,21.40
2022-07-27T19:30:44.778Z,21.20
2022-07-27T19:33:12.829Z,21.10
2022-07-27T19:35:40.817Z,21.10
2022-07-27T19:38:09.445Z,20.90
2022-07-27T19:40:44.628Z,20.80
2022-07-27T19:43:13.361Z,20.50
2022-07-27T19:45:42.020Z,20.50
2022-07-27T19:48:10.093Z,20.40
2022-07-27T19:50:38.168Z,20.40
2022-07-27T19:53:06.225Z,20.20
2022-07-27T19:55:34.602Z,20.10
2022-07-27T19:58:03.915Z,20.10
2022-07-27T20:00:32.230Z,19.90
2022-07-27T20:03:00.249Z,19.70
2022-07-27T20:05:28.426Z,19.50
2022-07-27T20:07:56.340Z,19.40
2022-07-27T20:10:25.364Z,19.40
2022-07-27T20:12:53.667Z,19.30
2022-07-27T20:15:23.068Z,19.20
2022-07-27T20:17:51.289Z,19.10
2022-07-27T20:20:19.566Z,19.00
2022-07-27T20:22:47.537Z,19.00
2022-07-27T20:25:16.088Z,18.80
2022-07-27T20:27:44.266Z,18.90
2022-07-27T20:30:14.506Z,18.80
2022-07-27T20:32:44.249Z,18.70
2022-07-27T20:35:12.242Z,18.60
2022-07-27T20:37:40.367Z,18.50
2022-07-27T20:40:11.464Z,18.40
2022-07-27T20:42:40.388Z,18.30
2022-07-27T20:45:11.380Z,18.60
2022-07-27T20:47:39.872Z,18.20
2022-07-27T20:50:11.471Z,18.20
2022-07-27T20:52:39.624Z,18.00
2022-07-27T20:55:08.687Z,18.00
2022-07-27T20:57:36.840Z,17.90
2022-07-27T21:00:07.562Z,18.00
2022-07-27T21:02:35.709Z,17.90
2022-07-27T21:05:03.832Z,17.80
2022-07-27T21:07:33.203Z,17.80
2022-07-27T21:10:01.131Z,17.80
2022-07-27T21:12:33.806Z,17.70
2022-07-27T21:15:08.636Z,17.70
2022-07-27T21:17:41.235Z,17.70
2022-07-27T21:20:10.409Z,17.70
2022-07-27T21:22:39.826Z,17.50
2022-07-27T21:25:11.207Z,17.50
2022-07-27T21:27:42.249Z,16.10
2022-07-27T21:30:16.216Z,17.40
2022-07-27T21:32:44.103Z,17.20
2022-07-27T21:35:15.156Z,17.30
2022-07-27T21:37:45.789Z,17.60
2022-07-27T21:40:16.976Z,17.20
2022-07-27T21:42:44.883Z,17.20
2022-07-27T21:45:13.458Z,17.20
2022-07-27T21:47:43.722Z,17.10
2022-07-27T21:50:12.234Z,17.10
2022-07-27T21:52:40.280Z,17.10
2022-07-27T21:55:10.587Z,17.00
2022-07-27T21:57:38.523Z,17.00
2022-07-27T22:00:08.436Z,16.90
2022-07-27T22:02:38.808Z,16.90
2022-07-27T22:05:07.575Z,16.90
2022-07-27T22:07:37.797Z,16.80
2022-07-27T22:10:08.831Z,16.80
2022-07-27T22:12:38.144Z,16.80
2022-07-27T22:15:09.953Z,16.80
2022-07-27T22:17:50.114Z,16.80
2022-07-27T22:20:21.026Z,16.80
2022-07-27T22:22:52.055Z,16.70
2022-07-27T22:25:25.216Z,16.70
2022-07-27T22:27:54.747Z,16.70
2022-07-27T22:30:25.144Z,16.80
2022-07-27T22:32:53.518Z,16.50
2022-07-27T22:35:21.865Z,16.50
2022-07-27T22:37:52.708Z,16.60
2022-07-27T22:40:22.338Z,16.50
2022-07-27T22:42:50.294Z,16.40
2022-07-27T22:45:20.188Z,16.40
2022-07-27T22:47:50.748Z,16.40
2022-07-27T22:50:20.307Z,16.40
2022-07-27T22:52:48.613Z,16.40
2022-07-27T22:55:17.302Z,16.40
2022-07-27T22:57:48.475Z,16.50
2022-07-27T23:00:18.527Z,16.30
2022-07-27T23:02:47.790Z,16.30
2022-07-27T23:05:16.219Z,16.30
2022-07-27T23:07:44.215Z,16.30
2022-07-27T23:10:32.462Z,16.30
2022-07-27T23:13:00.451Z,16.20
2022-07-27T23:15:28.554Z,16.20
2022-07-27T23:17:57.827Z,16.20
2022-07-27T23:20:25.864Z,16.20
2022-07-27T23:22:54.352Z,16.20
2022-07-27T23:25:24.796Z,16.20
2022-07-27T23:28:04.743Z,16.10
2022-07-27T23:30:32.727Z,16.20
2022-07-27T23:33:02.013Z,16.20
2022-07-27T23:35:30.187Z,16.20
2022-07-27T23:37:58.183Z,16.10
2022-07-27T23:40:26.707Z,16.10
2022-07-27T23:42:54.691Z,16.00
2022-07-27T23:45:22.891Z,16.00
2022-07-27T23:47:50.801Z,16.00
2022-07-27T23:50:20.126Z,15.90
2022-07-27T23:52:48.046Z,15.90
2022-07-27T23:55:16.082Z,15.90
2022-07-27T23:57:44.026Z,15.90
